sensor_id;sensor_type;location;lat;lon;timestamp;P1;durP1;ratioP1;P2;durP2;ratioP2
64959;SDS011;51487;52.266;10.542;2023-11-21T00:01:35;8.10;;;4.53;;
64959;SDS011;51487;52.266;10.542;2023-11-21T00:04:01;10.77;;;4.70;;
64959;SDS011;51487;52.266;10.542;2023-11-21T00:06:26;13.02;;;5.25;;
64959;SDS011;51487;52.266;10.542;2023-11-21T00:08:52;8.15;;;4.93;;
64959;SDS011;51487;52.266;10.542;2023-11-21T00:11:18;9.40;;;4.68;;
64959;SDS011;51487;52.266;10.542;2023-11-21T00:13:43;13.05;;;5.03;;
64959;SDS011;51487;52.266;10.542;2023-11-21T00:16:09;14.18;;;5.57;;
64959;SDS011;51487;52.266;10.542;2023-11-21T00:18:34;12.30;;;5.53;;
64959;SDS011;51487;52.266;10.542;2023-11-21T00:21:00;9.50;;;5.28;;
64959;SDS011;51487;52.266;10.542;2023-11-21T00:23:26;11.82;;;5.20;;
64959;SDS011;51487;52.266;10.542;2023-11-21T00:25:51;10.98;;;5.38;;
64959;SDS011;51487;52.266;10.542;2023-11-21T00:28:17;10.38;;;5.60;;
64959;SDS011;51487;52.266;10.542;2023-11-21T00:30:42;10.07;;;5.25;;
64959;SDS011;51487;52.266;10.542;2023-11-21T00:33:08;13.35;;;5.43;;
64959;SDS011;51487;52.266;10.542;2023-11-21T00:35:33;10.50;;;5.70;;
64959;SDS011;51487;52.266;10.542;2023-11-21T00:37:59;14.63;;;5.47;;
64959;SDS011;51487;52.266;10.542;2023-11-21T00:40:24;11.70;;;6.03;;
64959;SDS011;51487;52.266;10.542;2023-11-21T00:42:50;15.38;;;5.97;;
64959;SDS011;51487;52.266;10.542;2023-11-21T00:45:15;12.48;;;5.57;;
64959;SDS011;51487;52.266;10.542;2023-11-21T00:47:41;15.70;;;6.30;;
64959;SDS011;51487;52.266;10.542;2023-11-21T00:50:07;13.82;;;5.90;;
64959;SDS011;51487;52.266;10.542;2023-11-21T00:52:34;11.98;;;5.95;;
64959;SDS011;51487;52.266;10.542;2023-11-21T00:55:01;13.35;;;5.93;;
64959;SDS011;51487;52.266;10.542;2023-11-21T00:57:28;10.50;;;5.78;;
64959;SDS011;51487;52.266;10.542;2023-11-21T00:59:54;15.60;;;6.57;;
64959;SDS011;51487;52.266;10.542;2023-11-21T01:02:19;12.52;;;6.45;;
64959;SDS011;51487;52.266;10.542;2023-11-21T01:04:45;13.88;;;6.32;;
64959;SDS011;51487;52.266;10.542;2023-11-21T01:07:12;14.32;;;6.22;;
64959;SDS011;51487;52.266;10.542;2023-11-21T01:09:38;16.38;;;7.05;;
64959;SDS011;51487;52.266;10.542;2023-11-21T01:12:04;15.85;;;6.57;;
64959;SDS011;51487;52.266;10.542;2023-11-21T01:14:29;14.70;;;5.85;;
64959;SDS011;51487;52.266;10.542;2023-11-21T01:16:55;10.55;;;6.45;;
64959;SDS011;51487;52.266;10.542;2023-11-21T01:19:21;16.38;;;5.97;;
64959;SDS011;51487;52.266;10.542;2023-11-21T01:21:46;13.77;;;6.30;;
64959;SDS011;51487;52.266;10.542;2023-11-21T01:24:12;15.60;;;6.60;;
64959;SDS011;51487;52.266;10.542;2023-11-21T01:26:37;15.50;;;6.43;;
64959;SDS011;51487;52.266;10.542;2023-11-21T01:29:03;14.93;;;7.22;;
64959;SDS011;51487;52.266;10.542;2023-11-21T01:31:29;13.27;;;6.40;;
64959;SDS011;51487;52.266;10.542;2023-11-21T01:33:55;13.88;;;6.70;;
64959;SDS011;51487;52.266;10.542;2023-11-21T01:36:21;13.23;;;6.65;;
64959;SDS011;51487;52.266;10.542;2023-11-21T01:38:47;13.88;;;7.60;;
64959;SDS011;51487;52.266;10.542;2023-11-21T01:41:15;15.20;;;7.60;;
64959;SDS011;51487;52.266;10.542;2023-11-21T01:43:41;15.70;;;6.97;;
64959;SDS011;51487;52.266;10.542;2023-11-21T01:46:07;11.95;;;6.85;;
64959;SDS011;51487;52.266;10.542;2023-11-21T01:48:34;17.15;;;7.85;;
64959;SDS011;51487;52.266;10.542;2023-11-21T01:51:00;12.98;;;6.97;;
64959;SDS011;51487;52.266;10.542;2023-11-21T01:53:26;14.77;;;7.38;;
64959;SDS011;51487;52.266;10.542;2023-11-21T01:55:53;11.43;;;7.05;;
64959;SDS011;51487;52.266;10.542;2023-11-21T01:58:21;15.43;;;7.20;;
64959;SDS011;51487;52.266;10.542;2023-11-21T02:00:47;18.60;;;7.93;;
64959;SDS011;51487;52.266;10.542;2023-11-21T02:03:16;15.55;;;7.72;;
64959;SDS011;51487;52.266;10.542;2023-11-21T02:05:42;15.43;;;8.07;;
64959;SDS011;51487;52.266;10.542;2023-11-21T02:08:07;9.50;;;6.75;;
64959;SDS011;51487;52.266;10.542;2023-11-21T02:10:34;16.67;;;7.85;;
64959;SDS011;51487;52.266;10.542;2023-11-21T02:13:02;14.30;;;7.60;;
64959;SDS011;51487;52.266;10.542;2023-11-21T02:15:28;17.20;;;7.70;;
64959;SDS011;51487;52.266;10.542;2023-11-21T02:17:54;21.40;;;8.27;;
64959;SDS011;51487;52.266;10.542;2023-11-21T02:20:23;18.30;;;8.60;;
64959;SDS011;51487;52.266;10.542;2023-11-21T02:22:54;13.18;;;7.80;;
64959;SDS011;51487;52.266;10.542;2023-11-21T02:25:28;15.20;;;8.05;;
64959;SDS011;51487;52.266;10.542;2023-11-21T02:27:57;16.53;;;9.17;;
64959;SDS011;51487;52.266;10.542;2023-11-21T02:30:25;19.92;;;8.27;;
64959;SDS011;51487;52.266;10.542;2023-11-21T02:32:52;18.42;;;8.68;;
64959;SDS011;51487;52.266;10.542;2023-11-21T02:35:19;13.18;;;8.88;;
64959;SDS011;51487;52.266;10.542;2023-11-21T02:37:48;19.73;;;9.70;;
64959;SDS011;51487;52.266;10.542;2023-11-21T02:40:15;18.23;;;8.63;;
64959;SDS011;51487;52.266;10.542;2023-11-21T02:42:45;18.35;;;9.27;;
64959;SDS011;51487;52.266;10.542;2023-11-21T02:45:16;16.58;;;8.75;;
64959;SDS011;51487;52.266;10.542;2023-11-21T02:47:43;23.23;;;9.48;;
64959;SDS011;51487;52.266;10.542;2023-11-21T02:50:10;15.63;;;8.38;;
64959;SDS011;51487;52.266;10.542;2023-11-21T02:52:35;18.30;;;9.30;;
64959;SDS011;51487;52.266;10.542;2023-11-21T02:55:02;18.50;;;8.75;;
64959;SDS011;51487;52.266;10.542;2023-11-21T02:57:28;17.25;;;8.60;;
64959;SDS011;51487;52.266;10.542;2023-11-21T02:59:54;13.13;;;7.72;;
64959;SDS011;51487;52.266;10.542;2023-11-21T03:02:20;19.67;;;9.02;;
64959;SDS011;51487;52.266;10.542;2023-11-21T03:04:46;18.85;;;9.30;;
64959;SDS011;51487;52.266;10.542;2023-11-21T03:07:14;19.95;;;9.57;;
64959;SDS011;51487;52.266;10.542;2023-11-21T03:09:40;14.77;;;9.20;;
64959;SDS011;51487;52.266;10.542;2023-11-21T03:12:06;19.40;;;9.25;;
64959;SDS011;51487;52.266;10.542;2023-11-21T03:14:31;21.85;;;9.75;;
64959;SDS011;51487;52.266;10.542;2023-11-21T03:16:57;20.00;;;9.00;;
64959;SDS011;51487;52.266;10.542;2023-11-21T03:19:22;15.80;;;8.35;;
64959;SDS011;51487;52.266;10.542;2023-11-21T03:21:48;22.67;;;9.43;;
64959;SDS011;51487;52.266;10.542;2023-11-21T03:24:14;17.55;;;9.85;;
64959;SDS011;51487;52.266;10.542;2023-11-21T03:26:44;20.20;;;10.25;;
64959;SDS011;51487;52.266;10.542;2023-11-21T03:29:11;18.70;;;9.40;;
64959;SDS011;51487;52.266;10.542;2023-11-21T03:31:37;17.30;;;9.70;;
64959;SDS011;51487;52.266;10.542;2023-11-21T03:34:03;19.10;;;9.98;;
64959;SDS011;51487;52.266;10.542;2023-11-21T03:36:29;22.38;;;11.13;;
64959;SDS011;51487;52.266;10.542;2023-11-21T03:38:54;20.35;;;11.55;;
64959;SDS011;51487;52.266;10.542;2023-11-21T03:41:20;19.40;;;10.30;;
64959;SDS011;51487;52.266;10.542;2023-11-21T03:43:46;21.40;;;10.90;;
64959;SDS011;51487;52.266;10.542;2023-11-21T03:46:11;17.33;;;11.07;;
64959;SDS011;51487;52.266;10.542;2023-11-21T03:48:37;17.33;;;10.50;;
64959;SDS011;51487;52.266;10.542;2023-11-21T03:51:03;23.38;;;11.07;;
64959;SDS011;51487;52.266;10.542;2023-11-21T03:53:29;19.63;;;10.05;;
64959;SDS011;51487;52.266;10.542;2023-11-21T03:55:55;19.42;;;10.63;;
64959;SDS011;51487;52.266;10.542;2023-11-21T03:58:20;32.25;;;13.13;;
64959;SDS011;51487;52.266;10.542;2023-11-21T04:00:46;19.50;;;11.07;;
64959;SDS011;51487;52.266;10.542;2023-11-21T04:03:14;18.80;;;11.23;;
64959;SDS011;51487;52.266;10.542;2023-11-21T04:05:40;19.05;;;10.55;;
64959;SDS011;51487;52.266;10.542;2023-11-21T04:08:06;25.02;;;11.85;;
64959;SDS011;51487;52.266;10.542;2023-11-21T04:10:32;20.23;;;10.77;;
64959;SDS011;51487;52.266;10.542;2023-11-21T04:12:57;22.15;;;11.55;;
64959;SDS011;51487;52.266;10.542;2023-11-21T04:15:24;23.52;;;11.32;;
64959;SDS011;51487;52.266;10.542;2023-11-21T04:17:50;20.60;;;10.27;;
64959;SDS011;51487;52.266;10.542;2023-11-21T04:20:15;24.33;;;11.00;;
64959;SDS011;51487;52.266;10.542;2023-11-21T04:22:41;17.55;;;10.52;;
64959;SDS011;51487;52.266;10.542;2023-11-21T04:25:10;24.75;;;11.95;;
64959;SDS011;51487;52.266;10.542;2023-11-21T04:27:41;22.20;;;11.77;;
64959;SDS011;51487;52.266;10.542;2023-11-21T04:30:10;23.27;;;12.23;;
64959;SDS011;51487;52.266;10.542;2023-11-21T04:32:39;23.95;;;12.20;;
64959;SDS011;51487;52.266;10.542;2023-11-21T04:35:05;24.65;;;12.30;;
64959;SDS011;51487;52.266;10.542;2023-11-21T04:37:31;20.15;;;11.43;;
64959;SDS011;51487;52.266;10.542;2023-11-21T04:39:57;24.35;;;11.90;;
64959;SDS011;51487;52.266;10.542;2023-11-21T04:42:22;23.23;;;12.10;;
64959;SDS011;51487;52.266;10.542;2023-11-21T04:44:48;25.88;;;12.05;;
64959;SDS011;51487;52.266;10.542;2023-11-21T04:47:14;19.60;;;10.50;;
64959;SDS011;51487;52.266;10.542;2023-11-21T04:49:43;24.98;;;11.82;;
64959;SDS011;51487;52.266;10.542;2023-11-21T04:52:09;21.60;;;11.50;;
64959;SDS011;51487;52.266;10.542;2023-11-21T04:54:35;19.55;;;10.88;;
64959;SDS011;51487;52.266;10.542;2023-11-21T04:57:01;28.73;;;13.48;;
64959;SDS011;51487;52.266;10.542;2023-11-21T04:59:26;22.77;;;13.05;;
64959;SDS011;51487;52.266;10.542;2023-11-21T05:01:52;23.08;;;12.60;;
64959;SDS011;51487;52.266;10.542;2023-11-21T05:04:19;23.83;;;12.88;;
64959;SDS011;51487;52.266;10.542;2023-11-21T05:06:47;18.83;;;11.90;;
64959;SDS011;51487;52.266;10.542;2023-11-21T05:09:13;17.52;;;11.45;;
64959;SDS011;51487;52.266;10.542;2023-11-21T05:11:38;26.48;;;12.75;;
64959;SDS011;51487;52.266;10.542;2023-11-21T05:14:05;24.48;;;12.82;;
64959;SDS011;51487;52.266;10.542;2023-11-21T05:16:31;25.23;;;13.57;;
64959;SDS011;51487;52.266;10.542;2023-11-21T05:18:57;22.80;;;13.13;;
64959;SDS011;51487;52.266;10.542;2023-11-21T05:21:25;28.13;;;14.20;;
64959;SDS011;51487;52.266;10.542;2023-11-21T05:23:57;18.92;;;13.18;;
64959;SDS011;51487;52.266;10.542;2023-11-21T05:26:22;22.17;;;13.20;;
64959;SDS011;51487;52.266;10.542;2023-11-21T05:28:48;23.00;;;13.18;;
64959;SDS011;51487;52.266;10.542;2023-11-21T05:31:13;23.23;;;13.85;;
64959;SDS011;51487;52.266;10.542;2023-11-21T05:33:39;21.52;;;14.80;;
64959;SDS011;51487;52.266;10.542;2023-11-21T05:36:04;22.88;;;13.55;;
64959;SDS011;51487;52.266;10.542;2023-11-21T05:38:32;19.85;;;13.00;;
64959;SDS011;51487;52.266;10.542;2023-11-21T05:40:59;19.85;;;13.00;;
64959;SDS011;51487;52.266;10.542;2023-11-21T05:43:24;21.42;;;13.60;;
64959;SDS011;51487;52.266;10.542;2023-11-21T05:45:50;19.83;;;13.88;;
64959;SDS011;51487;52.266;10.542;2023-11-21T05:48:15;20.23;;;12.95;;
64959;SDS011;51487;52.266;10.542;2023-11-21T05:50:41;16.73;;;13.13;;
64959;SDS011;51487;52.266;10.542;2023-11-21T05:53:06;20.17;;;11.93;;
64959;SDS011;51487;52.266;10.542;2023-11-21T05:55:32;17.67;;;12.68;;
64959;SDS011;51487;52.266;10.542;2023-11-21T05:57:58;18.05;;;12.93;;
64959;SDS011;51487;52.266;10.542;2023-11-21T06:00:23;17.90;;;11.40;;
64959;SDS011;51487;52.266;10.542;2023-11-21T06:02:51;17.58;;;12.82;;
64959;SDS011;51487;52.266;10.542;2023-11-21T06:05:19;19.02;;;11.73;;
64959;SDS011;51487;52.266;10.542;2023-11-21T06:07:48;15.32;;;10.63;;
64959;SDS011;51487;52.266;10.542;2023-11-21T06:10:14;16.55;;;11.93;;
64959;SDS011;51487;52.266;10.542;2023-11-21T06:12:42;16.63;;;10.35;;
64959;SDS011;51487;52.266;10.542;2023-11-21T06:15:09;14.68;;;8.68;;
64959;SDS011;51487;52.266;10.542;2023-11-21T06:17:38;14.57;;;9.18;;
64959;SDS011;51487;52.266;10.542;2023-11-21T06:20:05;9.25;;;5.90;;
64959;SDS011;51487;52.266;10.542;2023-11-21T06:22:39;6.35;;;4.63;;
64959;SDS011;51487;52.266;10.542;2023-11-21T06:25:07;7.95;;;3.95;;
64959;SDS011;51487;52.266;10.542;2023-11-21T06:27:38;3.65;;;3.00;;
64959;SDS011;51487;52.266;10.542;2023-11-21T06:30:06;3.33;;;2.70;;
64959;SDS011;51487;52.266;10.542;2023-11-21T06:32:34;4.30;;;2.92;;
64959;SDS011;51487;52.266;10.542;2023-11-21T06:35:04;3.05;;;2.42;;
64959;SDS011;51487;52.266;10.542;2023-11-21T06:37:31;3.70;;;2.25;;
64959;SDS011;51487;52.266;10.542;2023-11-21T06:39:58;5.45;;;2.22;;
64959;SDS011;51487;52.266;10.542;2023-11-21T06:42:25;2.70;;;2.38;;
64959;SDS011;51487;52.266;10.542;2023-11-21T06:44:51;3.50;;;2.80;;
64959;SDS011;51487;52.266;10.542;2023-11-21T06:47:18;3.85;;;2.88;;
64959;SDS011;51487;52.266;10.542;2023-11-21T06:49:50;3.92;;;3.20;;
64959;SDS011;51487;52.266;10.542;2023-11-21T06:52:16;5.25;;;3.50;;
64959;SDS011;51487;52.266;10.542;2023-11-21T06:54:43;7.90;;;4.50;;
64959;SDS011;51487;52.266;10.542;2023-11-21T06:57:09;6.68;;;4.97;;
64959;SDS011;51487;52.266;10.542;2023-11-21T06:59:34;9.55;;;5.38;;
64959;SDS011;51487;52.266;10.542;2023-11-21T07:02:00;13.98;;;6.05;;
64959;SDS011;51487;52.266;10.542;2023-11-21T07:04:25;9.63;;;6.13;;
64959;SDS011;51487;52.266;10.542;2023-11-21T07:06:51;8.50;;;6.30;;
64959;SDS011;51487;52.266;10.542;2023-11-21T07:09:18;10.32;;;6.50;;
64959;SDS011;51487;52.266;10.542;2023-11-21T07:11:47;9.18;;;6.85;;
64959;SDS011;51487;52.266;10.542;2023-11-21T07:14:15;9.68;;;6.95;;
64959;SDS011;51487;52.266;10.542;2023-11-21T07:16:42;11.20;;;7.85;;
64959;SDS011;51487;52.266;10.542;2023-11-21T07:19:07;11.15;;;7.70;;
64959;SDS011;51487;52.266;10.542;2023-11-21T07:21:34;10.60;;;7.88;;
64959;SDS011;51487;52.266;10.542;2023-11-21T07:24:01;11.88;;;7.60;;
64959;SDS011;51487;52.266;10.542;2023-11-21T07:26:31;11.52;;;7.80;;
64959;SDS011;51487;52.266;10.542;2023-11-21T07:28:58;11.23;;;7.78;;
64959;SDS011;51487;52.266;10.542;2023-11-21T07:31:24;9.15;;;7.47;;
64959;SDS011;51487;52.266;10.542;2023-11-21T07:33:49;9.90;;;7.15;;
64959;SDS011;51487;52.266;10.542;2023-11-21T07:36:16;11.82;;;7.95;;
64959;SDS011;51487;52.266;10.542;2023-11-21T07:38:48;10.48;;;7.80;;
64959;SDS011;51487;52.266;10.542;2023-11-21T07:41:15;11.30;;;8.35;;
64959;SDS011;51487;52.266;10.542;2023-11-21T07:43:42;10.57;;;8.07;;
64959;SDS011;51487;52.266;10.542;2023-11-21T07:46:12;9.63;;;7.28;;
64959;SDS011;51487;52.266;10.542;2023-11-21T07:48:39;9.65;;;7.35;;
64959;SDS011;51487;52.266;10.542;2023-11-21T07:51:07;10.75;;;6.82;;
64959;SDS011;51487;52.266;10.542;2023-11-21T07:53:33;10.30;;;7.22;;
64959;SDS011;51487;52.266;10.542;2023-11-21T07:56:04;9.13;;;6.30;;
64959;SDS011;51487;52.266;10.542;2023-11-21T07:58:34;9.15;;;7.22;;
64959;SDS011;51487;52.266;10.542;2023-11-21T08:01:00;11.20;;;6.80;;
64959;SDS011;51487;52.266;10.542;2023-11-21T08:03:28;10.57;;;6.85;;
64959;SDS011;51487;52.266;10.542;2023-11-21T08:05:57;12.05;;;7.35;;
64959;SDS011;51487;52.266;10.542;2023-11-21T08:08:23;10.13;;;7.60;;
64959;SDS011;51487;52.266;10.542;2023-11-21T08:10:50;13.77;;;8.43;;
64959;SDS011;51487;52.266;10.542;2023-11-21T08:13:23;14.27;;;8.13;;
64959;SDS011;51487;52.266;10.542;2023-11-21T08:15:49;10.95;;;8.25;;
64959;SDS011;51487;52.266;10.542;2023-11-21T08:18:14;10.98;;;7.47;;
64959;SDS011;51487;52.266;10.542;2023-11-21T08:20:41;8.35;;;6.80;;
64959;SDS011;51487;52.266;10.542;2023-11-21T08:23:07;10.32;;;6.88;;
64959;SDS011;51487;52.266;10.542;2023-11-21T08:25:32;10.85;;;7.70;;
64959;SDS011;51487;52.266;10.542;2023-11-21T08:27:59;12.55;;;7.03;;
64959;SDS011;51487;52.266;10.542;2023-11-21T08:30:25;10.45;;;7.10;;
64959;SDS011;51487;52.266;10.542;2023-11-21T08:32:54;10.18;;;8.15;;
64959;SDS011;51487;52.266;10.542;2023-11-21T08:35:23;10.45;;;7.30;;
64959;SDS011;51487;52.266;10.542;2023-11-21T08:37:52;11.20;;;7.95;;
64959;SDS011;51487;52.266;10.542;2023-11-21T08:40:18;11.40;;;8.00;;
64959;SDS011;51487;52.266;10.542;2023-11-21T08:42:46;10.25;;;7.28;;
64959;SDS011;51487;52.266;10.542;2023-11-21T08:45:12;9.65;;;6.47;;
64959;SDS011;51487;52.266;10.542;2023-11-21T08:47:38;9.15;;;7.07;;
64959;SDS011;51487;52.266;10.542;2023-11-21T08:50:05;9.65;;;6.88;;
64959;SDS011;51487;52.266;10.542;2023-11-21T08:52:33;9.55;;;6.15;;
64959;SDS011;51487;52.266;10.542;2023-11-21T08:54:59;9.40;;;6.45;;
64959;SDS011;51487;52.266;10.542;2023-11-21T08:57:32;9.38;;;5.97;;
64959;SDS011;51487;52.266;10.542;2023-11-21T09:00:00;7.50;;;5.53;;
64959;SDS011;51487;52.266;10.542;2023-11-21T09:02:26;7.30;;;5.03;;
64959;SDS011;51487;52.266;10.542;2023-11-21T09:04:52;6.90;;;5.35;;
64959;SDS011;51487;52.266;10.542;2023-11-21T09:07:18;6.07;;;5.30;;
64959;SDS011;51487;52.266;10.542;2023-11-21T09:09:45;6.20;;;5.18;;
64959;SDS011;51487;52.266;10.542;2023-11-21T09:12:12;6.53;;;5.30;;
64959;SDS011;51487;52.266;10.542;2023-11-21T09:14:38;9.30;;;5.00;;
64959;SDS011;51487;52.266;10.542;2023-11-21T09:17:04;11.38;;;4.82;;
64959;SDS011;51487;52.266;10.542;2023-11-21T09:19:36;5.97;;;5.20;;
64959;SDS011;51487;52.266;10.542;2023-11-21T09:22:02;6.03;;;4.93;;
64959;SDS011;51487;52.266;10.542;2023-11-21T09:24:30;6.45;;;4.63;;
64959;SDS011;51487;52.266;10.542;2023-11-21T09:26:56;6.53;;;4.15;;
64959;SDS011;51487;52.266;10.542;2023-11-21T09:29:22;5.30;;;4.30;;
64959;SDS011;51487;52.266;10.542;2023-11-21T09:31:47;5.78;;;4.00;;
64959;SDS011;51487;52.266;10.542;2023-11-21T09:34:16;6.25;;;4.45;;
64959;SDS011;51487;52.266;10.542;2023-11-21T09:36:44;7.88;;;4.40;;
64959;SDS011;51487;52.266;10.542;2023-11-21T09:39:10;5.60;;;4.10;;
64959;SDS011;51487;52.266;10.542;2023-11-21T09:44:30;7.28;;;4.30;;
64959;SDS011;51487;52.266;10.542;2023-11-21T09:47:07;5.07;;;4.10;;
64959;SDS011;51487;52.266;10.542;2023-11-21T09:49:41;5.25;;;4.53;;
64959;SDS011;51487;52.266;10.542;2023-11-21T09:52:12;5.47;;;4.05;;
64959;SDS011;51487;52.266;10.542;2023-11-21T09:54:50;7.05;;;4.13;;
64959;SDS011;51487;52.266;10.542;2023-11-21T09:57:19;5.97;;;4.32;;
64959;SDS011;51487;52.266;10.542;2023-11-21T09:59:52;8.43;;;4.60;;
64959;SDS011;51487;52.266;10.542;2023-11-21T10:02:27;6.53;;;4.60;;
64959;SDS011;51487;52.266;10.542;2023-11-21T10:04:55;7.45;;;4.80;;
64959;SDS011;51487;52.266;10.542;2023-11-21T10:07:21;6.78;;;5.10;;
64959;SDS011;51487;52.266;10.542;2023-11-21T10:09:48;8.30;;;5.30;;
64959;SDS011;51487;52.266;10.542;2023-11-21T10:12:17;5.57;;;4.43;;
64959;SDS011;51487;52.266;10.542;2023-11-21T10:14:45;6.90;;;4.72;;
64959;SDS011;51487;52.266;10.542;2023-11-21T10:17:14;5.93;;;4.70;;
64959;SDS011;51487;52.266;10.542;2023-11-21T10:19:43;6.43;;;5.00;;
64959;SDS011;51487;52.266;10.542;2023-11-21T10:22:14;6.97;;;5.00;;
64959;SDS011;51487;52.266;10.542;2023-11-21T10:24:41;5.80;;;4.45;;
64959;SDS011;51487;52.266;10.542;2023-11-21T10:27:08;6.50;;;5.00;;
64959;SDS011;51487;52.266;10.542;2023-11-21T10:29:34;8.20;;;4.97;;
64959;SDS011;51487;52.266;10.542;2023-11-21T10:32:01;8.05;;;5.07;;
64959;SDS011;51487;52.266;10.542;2023-11-21T10:34:28;7.10;;;4.70;;
64959;SDS011;51487;52.266;10.542;2023-11-21T10:36:54;8.20;;;4.93;;
64959;SDS011;51487;52.266;10.542;2023-11-21T10:39:23;6.03;;;4.70;;
64959;SDS011;51487;52.266;10.542;2023-11-21T10:41:52;7.90;;;4.70;;
64959;SDS011;51487;52.266;10.542;2023-11-21T10:44:19;6.50;;;4.60;;
64959;SDS011;51487;52.266;10.542;2023-11-21T10:46:48;6.68;;;4.47;;
64959;SDS011;51487;52.266;10.542;2023-11-21T10:49:28;5.75;;;4.18;;
64959;SDS011;51487;52.266;10.542;2023-11-21T10:51:54;5.93;;;4.63;;
64959;SDS011;51487;52.266;10.542;2023-11-21T10:54:20;6.70;;;4.55;;
64959;SDS011;51487;52.266;10.542;2023-11-21T10:56:53;6.72;;;4.50;;
64959;SDS011;51487;52.266;10.542;2023-11-21T10:59:26;6.30;;;4.60;;
64959;SDS011;51487;52.266;10.542;2023-11-21T11:01:56;7.68;;;4.80;;
64959;SDS011;51487;52.266;10.542;2023-11-21T11:04:26;5.60;;;4.03;;
64959;SDS011;51487;52.266;10.542;2023-11-21T11:07:01;5.45;;;4.53;;
64959;SDS011;51487;52.266;10.542;2023-11-21T11:09:31;6.85;;;4.65;;
64959;SDS011;51487;52.266;10.542;2023-11-21T11:11:59;7.18;;;4.55;;
64959;SDS011;51487;52.266;10.542;2023-11-21T11:14:27;6.47;;;4.47;;
64959;SDS011;51487;52.266;10.542;2023-11-21T11:16:54;6.55;;;4.53;;
64959;SDS011;51487;52.266;10.542;2023-11-21T11:19:20;5.88;;;4.47;;
64959;SDS011;51487;52.266;10.542;2023-11-21T11:21:50;6.25;;;4.78;;
64959;SDS011;51487;52.266;10.542;2023-11-21T11:36:13;5.03;;;4.32;;
64959;SDS011;51487;52.266;10.542;2023-11-21T11:38:46;4.97;;;4.25;;
64959;SDS011;51487;52.266;10.542;2023-11-21T11:41:19;7.22;;;4.88;;
64959;SDS011;51487;52.266;10.542;2023-11-21T11:43:58;7.32;;;4.88;;
64959;SDS011;51487;52.266;10.542;2023-11-21T11:46:41;6.43;;;4.75;;
64959;SDS011;51487;52.266;10.542;2023-11-21T11:49:08;5.93;;;4.85;;
64959;SDS011;51487;52.266;10.542;2023-11-21T11:51:33;6.00;;;4.25;;
64959;SDS011;51487;52.266;10.542;2023-11-21T11:54:01;5.30;;;4.30;;
64959;SDS011;51487;52.266;10.542;2023-11-21T11:59:04;10.55;;;4.20;;
64959;SDS011;51487;52.266;10.542;2023-11-21T12:01:34;6.00;;;4.13;;
64959;SDS011;51487;52.266;10.542;2023-11-21T12:06:51;9.13;;;4.32;;
64959;SDS011;51487;52.266;10.542;2023-11-21T12:09:22;5.55;;;4.35;;
64959;SDS011;51487;52.266;10.542;2023-11-21T12:11:49;6.70;;;4.18;;
64959;SDS011;51487;52.266;10.542;2023-11-21T12:14:15;8.30;;;4.43;;
64959;SDS011;51487;52.266;10.542;2023-11-21T12:16:42;6.00;;;3.97;;
64959;SDS011;51487;52.266;10.542;2023-11-21T12:19:09;6.28;;;3.70;;
64959;SDS011;51487;52.266;10.542;2023-11-21T12:21:36;4.38;;;3.53;;
64959;SDS011;51487;52.266;10.542;2023-11-21T12:24:02;5.35;;;3.15;;
64959;SDS011;51487;52.266;10.542;2023-11-21T12:26:29;4.50;;;3.25;;
64959;SDS011;51487;52.266;10.542;2023-11-21T12:28:54;4.93;;;3.30;;
64959;SDS011;51487;52.266;10.542;2023-11-21T12:31:23;5.25;;;3.42;;
64959;SDS011;51487;52.266;10.542;2023-11-21T12:33:48;5.45;;;3.67;;
64959;SDS011;51487;52.266;10.542;2023-11-21T12:36:15;4.00;;;3.40;;
64959;SDS011;51487;52.266;10.542;2023-11-21T12:38:41;4.32;;;3.70;;
64959;SDS011;51487;52.266;10.542;2023-11-21T12:41:08;4.95;;;3.67;;
64959;SDS011;51487;52.266;10.542;2023-11-21T12:43:35;5.15;;;3.78;;
64959;SDS011;51487;52.266;10.542;2023-11-21T12:46:07;6.15;;;3.78;;
64959;SDS011;51487;52.266;10.542;2023-11-21T12:48:39;7.40;;;3.53;;
64959;SDS011;51487;52.266;10.542;2023-11-21T12:51:10;6.25;;;3.50;;
64959;SDS011;51487;52.266;10.542;2023-11-21T12:53:37;5.40;;;3.42;;
64959;SDS011;51487;52.266;10.542;2023-11-21T12:56:09;5.95;;;3.60;;
64959;SDS011;51487;52.266;10.542;2023-11-21T12:58:39;4.03;;;3.17;;
64959;SDS011;51487;52.266;10.542;2023-11-21T13:01:13;4.18;;;3.03;;
64959;SDS011;51487;52.266;10.542;2023-11-21T13:03:43;4.43;;;2.88;;
64959;SDS011;51487;52.266;10.542;2023-11-21T13:06:13;3.22;;;2.85;;
64959;SDS011;51487;52.266;10.542;2023-11-21T13:08:41;3.75;;;2.97;;
64959;SDS011;51487;52.266;10.542;2023-11-21T13:11:09;6.68;;;3.10;;
64959;SDS011;51487;52.266;10.542;2023-11-21T13:13:36;3.85;;;2.95;;
64959;SDS011;51487;52.266;10.542;2023-11-21T13:16:06;3.85;;;2.75;;
64959;SDS011;51487;52.266;10.542;2023-11-21T13:18:33;4.28;;;3.10;;
64959;SDS011;51487;52.266;10.542;2023-11-21T13:21:00;6.63;;;3.25;;
64959;SDS011;51487;52.266;10.542;2023-11-21T13:23:35;3.95;;;3.08;;
64959;SDS011;51487;52.266;10.542;2023-11-21T13:26:02;4.95;;;3.08;;
64959;SDS011;51487;52.266;10.542;2023-11-21T13:28:31;4.40;;;2.63;;
64959;SDS011;51487;52.266;10.542;2023-11-21T13:30:58;3.78;;;2.75;;
64959;SDS011;51487;52.266;10.542;2023-11-21T13:33:34;4.68;;;2.88;;
64959;SDS011;51487;52.266;10.542;2023-11-21T13:36:03;3.95;;;3.05;;
64959;SDS011;51487;52.266;10.542;2023-11-21T13:38:33;3.28;;;2.88;;
64959;SDS011;51487;52.266;10.542;2023-11-21T13:41:00;5.03;;;2.83;;
64959;SDS011;51487;52.266;10.542;2023-11-21T13:43:26;4.45;;;3.03;;
64959;SDS011;51487;52.266;10.542;2023-11-21T13:45:54;3.20;;;2.85;;
64959;SDS011;51487;52.266;10.542;2023-11-21T13:48:38;5.80;;;3.38;;
64959;SDS011;51487;52.266;10.542;2023-11-21T13:51:08;4.88;;;3.40;;
64959;SDS011;51487;52.266;10.542;2023-11-21T13:53:45;3.90;;;3.10;;
64959;SDS011;51487;52.266;10.542;2023-11-21T13:56:14;4.70;;;3.00;;
64959;SDS011;51487;52.266;10.542;2023-11-21T13:58:44;7.40;;;3.35;;
64959;SDS011;51487;52.266;10.542;2023-11-21T14:01:20;3.53;;;2.85;;
64959;SDS011;51487;52.266;10.542;2023-11-21T14:04:00;5.32;;;3.28;;
64959;SDS011;51487;52.266;10.542;2023-11-21T14:06:48;5.18;;;3.10;;
64959;SDS011;51487;52.266;10.542;2023-11-21T14:09:22;3.97;;;2.80;;
64959;SDS011;51487;52.266;10.542;2023-11-21T14:11:58;7.05;;;3.50;;
64959;SDS011;51487;52.266;10.542;2023-11-21T14:14:25;4.38;;;3.53;;
64959;SDS011;51487;52.266;10.542;2023-11-21T14:16:55;4.50;;;3.13;;
64959;SDS011;51487;52.266;10.542;2023-11-21T14:19:21;4.03;;;3.10;;
64959;SDS011;51487;52.266;10.542;2023-11-21T14:21:50;4.22;;;3.10;;
64959;SDS011;51487;52.266;10.542;2023-11-21T14:24:16;5.10;;;3.00;;
64959;SDS011;51487;52.266;10.542;2023-11-21T14:26:43;3.33;;;2.70;;
64959;SDS011;51487;52.266;10.542;2023-11-21T14:29:11;4.57;;;3.22;;
64959;SDS011;51487;52.266;10.542;2023-11-21T14:31:39;4.50;;;2.88;;
64959;SDS011;51487;52.266;10.542;2023-11-21T14:34:06;5.60;;;3.38;;
64959;SDS011;51487;52.266;10.542;2023-11-21T14:36:33;3.65;;;2.70;;
64959;SDS011;51487;52.266;10.542;2023-11-21T14:39:00;3.38;;;2.70;;
64959;SDS011;51487;52.266;10.542;2023-11-21T14:41:26;3.60;;;3.03;;
64959;SDS011;51487;52.266;10.542;2023-11-21T14:43:54;5.72;;;3.20;;
64959;SDS011;51487;52.266;10.542;2023-11-21T14:46:22;4.47;;;3.42;;
64959;SDS011;51487;52.266;10.542;2023-11-21T14:48:48;4.75;;;3.10;;